createdAt,value
2019-04-21T00:01:50.691Z,3.00
2019-04-21T00:04:33.283Z,2.47
2019-04-21T00:07:09.004Z,2.60
2019-04-21T00:09:41.105Z,3.53
2019-04-21T00:12:09.257Z,3.00
2019-04-21T00:14:31.473Z,2.70
2019-04-21T00:16:56.314Z,2.53
2019-04-21T00:19:26.106Z,3.00
2019-04-21T00:21:55.329Z,3.53
2019-04-21T00:24:33.748Z,2.60
2019-04-21T00:27:14.142Z,4.13
2019-04-21T00:32:07.315Z,2.50
2019-04-21T00:34:21.745Z,2.60
2019-04-21T00:37:03.628Z,2.50
2019-04-21T00:39:48.839Z,2.50
2019-04-21T00:42:11.221Z,2.40
2019-04-21T00:44:29.379Z,2.60
2019-04-21T00:47:09.176Z,2.70
2019-04-21T00:49:36.914Z,2.60
2019-04-21T00:52:46.013Z,2.67
2019-04-21T00:55:14.187Z,2.80
2019-04-21T00:57:38.770Z,2.90
2019-04-21T01:00:07.339Z,2.70
2019-04-21T01:02:41.685Z,2.50
2019-04-21T01:05:06.404Z,2.50
2019-04-21T01:07:34.424Z,2.83
2019-04-21T01:09:58.337Z,2.93
2019-04-21T01:12:40.213Z,2.93
2019-04-21T01:15:09.163Z,2.47
2019-04-21T01:17:35.682Z,2.67
2019-04-21T01:19:57.486Z,2.80
2019-04-21T01:22:12.829Z,2.60
2019-04-21T01:24:46.358Z,2.93
2019-04-21T01:27:22.629Z,2.63
2019-04-21T01:30:00.034Z,3.03
2019-04-21T01:32:38.604Z,2.60
2019-04-21T01:35:05.266Z,2.30
2019-04-21T01:37:42.185Z,2.70
2019-04-21T01:40:13.965Z,2.50
2019-04-21T01:42:32.750Z,2.63
2019-04-21T01:44:59.783Z,3.57
2019-04-21T01:47:26.238Z,2.67
2019-04-21T01:49:52.363Z,2.67
2019-04-21T01:52:38.605Z,2.80
2019-04-21T01:55:06.249Z,2.60
2019-04-21T01:57:45.281Z,2.60
2019-04-21T02:00:07.046Z,2.70
2019-04-21T02:02:48.636Z,2.67
2019-04-21T02:05:28.459Z,2.80
2019-04-21T02:07:44.844Z,2.83
2019-04-21T02:10:17.849Z,2.43
2019-04-21T02:12:52.459Z,2.50
2019-04-21T02:15:36.064Z,2.83
2019-04-21T02:17:51.697Z,2.53
2019-04-21T02:20:14.713Z,2.40
2019-04-21T02:23:06.033Z,2.50
2019-04-21T02:25:23.118Z,2.77
2019-04-21T02:27:50.383Z,2.40
2019-04-21T02:30:29.533Z,2.53
2019-04-21T02:33:02.957Z,2.60
2019-04-21T02:35:40.584Z,2.50
2019-04-21T02:40:30.303Z,2.60
2019-04-21T02:50:28.266Z,2.50
2019-04-21T02:55:29.012Z,2.73
2019-04-21T02:58:09.983Z,2.60
2019-04-21T03:00:33.232Z,2.53
2019-04-21T03:05:53.036Z,2.43
2019-04-21T03:08:27.922Z,2.67
2019-04-21T03:10:54.106Z,2.73
2019-04-21T03:13:31.696Z,2.70
2019-04-21T03:18:24.214Z,2.30
2019-04-21T03:20:51.019Z,2.67
2019-04-21T03:23:31.808Z,2.60
2019-04-21T03:25:52.040Z,2.40
2019-04-21T03:28:22.638Z,2.60
2019-04-21T03:36:12.930Z,2.60
2019-04-21T03:38:26.984Z,2.43
2019-04-21T03:40:54.963Z,2.60
2019-04-21T03:43:20.537Z,2.73
2019-04-21T03:48:36.575Z,2.70
2019-04-21T03:50:46.952Z,2.87
2019-04-21T03:53:24.114Z,2.50
2019-04-21T03:56:01.330Z,2.37
2019-04-21T03:58:38.875Z,2.67
2019-04-21T04:01:04.187Z,2.40
2019-04-21T04:04:06.700Z,2.50
2019-04-21T04:06:53.163Z,2.43
2019-04-21T04:11:49.564Z,2.30
2019-04-21T04:16:47.446Z,2.77
2019-04-21T04:19:07.755Z,3.00
2019-04-21T04:24:16.856Z,2.50
2019-04-21T04:26:39.765Z,2.53
2019-04-21T04:29:12.195Z,2.70
2019-04-21T04:34:21.008Z,2.60
2019-04-21T04:42:23.448Z,2.77
2019-04-21T04:49:47.981Z,2.70
2019-04-21T04:57:18.249Z,2.63
2019-04-21T05:00:01.793Z,3.17
2019-04-21T05:04:46.118Z,2.53
2019-04-21T05:07:17.464Z,2.47
2019-04-21T05:09:39.077Z,3.20
2019-04-21T05:12:07.737Z,2.70
2019-04-21T05:14:41.054Z,2.67
2019-04-21T05:17:17.192Z,2.60
2019-04-21T05:19:41.453Z,2.90
2019-04-21T05:22:14.174Z,2.60
2019-04-21T05:24:28.979Z,2.50
2019-04-21T05:26:59.539Z,2.73
2019-04-21T05:29:24.325Z,2.60
2019-04-21T05:32:08.753Z,2.70
2019-04-21T05:34:42.967Z,2.80
2019-04-21T05:37:24.503Z,2.60
2019-04-21T05:39:52.237Z,2.70
2019-04-21T05:42:15.357Z,2.47
2019-04-21T05:45:01.601Z,3.03
2019-04-21T05:47:33.278Z,2.43
2019-04-21T05:50:12.387Z,2.67
2019-04-21T05:52:50.348Z,2.30
2019-04-21T05:55:34.687Z,2.37
2019-04-21T05:57:54.693Z,2.77
2019-04-21T06:00:48.151Z,2.80
2019-04-21T06:02:57.699Z,2.47
2019-04-21T06:05:36.756Z,2.80
2019-04-21T06:08:02.790Z,2.23
2019-04-21T06:10:31.465Z,2.90
2019-04-21T06:13:05.977Z,2.70
2019-04-21T06:15:34.272Z,2.63
2019-04-21T06:18:04.986Z,2.70
2019-04-21T06:20:35.545Z,2.63
2019-04-21T06:23:03.001Z,2.50
2019-04-21T06:28:09.256Z,2.60
2019-04-21T06:30:33.369Z,2.60
2019-04-21T06:32:59.489Z,2.37
2019-04-21T06:36:21.693Z,2.73
2019-04-21T06:38:38.057Z,2.60
2019-04-21T06:40:57.098Z,2.40
2019-04-21T06:43:40.366Z,2.50
2019-04-21T06:45:54.377Z,2.60
2019-04-21T06:48:26.205Z,2.87
2019-04-21T06:51:06.891Z,3.10
2019-04-21T06:53:29.648Z,3.30
2019-04-21T06:55:51.678Z,3.33
2019-04-21T06:58:22.832Z,3.80
2019-04-21T07:00:51.765Z,3.73
2019-04-21T07:05:58.999Z,4.67
2019-04-21T07:10:51.753Z,5.83
2019-04-21T07:13:22.268Z,5.37
2019-04-21T07:15:55.875Z,5.43
2019-04-21T07:18:28.655Z,3.87
2019-04-21T07:20:53.226Z,4.10
2019-04-21T07:23:26.197Z,5.10
2019-04-21T07:25:51.423Z,4.67
2019-04-21T07:28:25.587Z,7.30
2019-04-21T07:30:59.405Z,5.40
2019-04-21T07:33:50.883Z,5.60
2019-04-21T07:35:51.718Z,6.90
2019-04-21T07:38:16.651Z,5.73
2019-04-21T07:40:50.001Z,5.87
2019-04-21T07:43:16.605Z,7.07
2019-04-21T07:45:44.458Z,7.07
2019-04-21T07:48:26.318Z,5.60
2019-04-21T07:51:07.511Z,6.47
2019-04-21T07:53:48.255Z,5.37
2019-04-21T07:55:51.094Z,5.10
2019-04-21T07:58:47.722Z,5.70
2019-04-21T08:01:12.069Z,5.53
2019-04-21T08:03:38.910Z,5.60
2019-04-21T08:06:18.992Z,5.17
2019-04-21T08:08:45.083Z,6.30
2019-04-21T08:11:13.373Z,5.70
2019-04-21T08:16:10.901Z,5.53
2019-04-21T08:18:39.550Z,5.20
2019-04-21T08:21:08.590Z,5.80
2019-04-21T08:23:37.034Z,5.80
2019-04-21T08:26:26.142Z,6.00
2019-04-21T08:28:40.665Z,5.83
2019-04-21T08:31:14.324Z,6.80
2019-04-21T08:36:17.783Z,5.77
2019-04-21T08:38:40.265Z,6.30
2019-04-21T08:43:43.075Z,6.27
2019-04-21T08:46:13.837Z,6.93
2019-04-21T08:48:47.845Z,6.43
2019-04-21T08:51:23.743Z,6.30
2019-04-21T08:53:45.834Z,6.20
2019-04-21T08:56:16.458Z,6.27
2019-04-21T08:59:03.856Z,6.43
2019-04-21T09:01:38.312Z,7.27
2019-04-21T09:04:10.711Z,6.73
2019-04-21T09:06:55.631Z,7.13
2019-04-21T09:09:11.774Z,6.63
2019-04-21T09:11:37.537Z,6.73
2019-04-21T09:14:07.548Z,6.67
2019-04-21T09:16:35.516Z,6.57
2019-04-21T09:19:04.246Z,6.97
2019-04-21T09:21:39.434Z,6.93
2019-04-21T09:24:11.737Z,6.57
2019-04-21T09:26:34.069Z,7.83
2019-04-21T09:29:04.382Z,8.03
2019-04-21T09:31:28.692Z,7.87
2019-04-21T09:33:54.401Z,7.53
2019-04-21T09:36:24.025Z,7.90
2019-04-21T09:39:01.163Z,8.23
2019-04-21T09:41:24.256Z,7.33
2019-04-21T09:43:54.544Z,8.40
2019-04-21T09:46:23.128Z,7.57
2019-04-21T09:48:57.176Z,7.87
2019-04-21T09:51:21.865Z,7.63
2019-04-21T09:53:57.202Z,8.40
2019-04-21T09:56:31.171Z,8.83
2019-04-21T09:59:01.764Z,7.57
2019-04-21T10:01:28.714Z,7.90
2019-04-21T10:03:55.192Z,7.87
2019-04-21T10:06:20.845Z,8.80
2019-04-21T10:08:57.554Z,8.17
2019-04-21T10:11:22.655Z,8.63
2019-04-21T10:13:53.140Z,8.97
2019-04-21T10:16:32.196Z,9.17
2019-04-21T10:19:00.602Z,8.47
2019-04-21T10:21:29.394Z,8.73
2019-04-21T10:23:59.854Z,8.80
2019-04-21T10:26:28.834Z,9.17
2019-04-21T10:29:03.376Z,8.70
2019-04-21T10:31:27.303Z,8.50
2019-04-21T10:33:55.699Z,9.03
2019-04-21T10:36:24.938Z,10.43
2019-04-21T10:38:54.991Z,8.67
2019-04-21T10:41:23.429Z,9.40
2019-04-21T10:43:51.769Z,8.47
2019-04-21T10:46:20.211Z,9.87
2019-04-21T10:48:48.691Z,9.07
2019-04-21T10:51:17.221Z,8.77
2019-04-21T10:53:50.876Z,8.30
2019-04-21T10:56:25.223Z,9.00
2019-04-21T10:58:47.431Z,8.63
2019-04-21T11:01:18.830Z,8.67
2019-04-21T11:03:49.159Z,8.43
2019-04-21T11:06:19.048Z,8.43
2019-04-21T11:08:50.669Z,9.00
2019-04-21T11:11:17.575Z,9.83
2019-04-21T11:13:46.397Z,11.00
2019-04-21T11:16:15.287Z,10.77
2019-04-21T11:18:44.104Z,9.50
2019-04-21T11:21:13.280Z,9.97
2019-04-21T11:23:41.834Z,8.67
2019-04-21T11:26:11.884Z,8.97
2019-04-21T11:28:40.867Z,9.10
2019-04-21T11:31:10.980Z,8.87
2019-04-21T11:33:39.727Z,9.53
2019-04-21T11:36:09.065Z,8.93
2019-04-21T11:38:57.135Z,7.83
2019-04-21T11:41:11.985Z,8.73
2019-04-21T11:43:41.318Z,7.97
2019-04-21T11:46:10.811Z,8.37
2019-04-21T11:48:40.057Z,8.47
2019-04-21T11:51:11.026Z,7.83
2019-04-21T11:53:39.139Z,7.40
2019-04-21T11:56:08.927Z,7.83
2019-04-21T11:58:37.829Z,7.53
2019-04-21T12:01:07.699Z,7.57
2019-04-21T12:03:37.654Z,8.33
2019-04-21T12:06:06.527Z,7.20
2019-04-21T12:08:40.420Z,7.43
2019-04-21T12:11:05.339Z,7.37
2019-04-21T12:13:34.219Z,7.30
2019-04-21T12:16:03.133Z,7.37
2019-04-21T12:18:33.855Z,7.37
2019-04-21T12:21:03.140Z,6.67
2019-04-21T12:23:32.412Z,7.30
2019-04-21T12:26:01.456Z,6.73
2019-04-21T12:28:30.227Z,7.07
2019-04-21T12:31:00.105Z,6.30
2019-04-21T12:33:31.821Z,6.77
2019-04-21T12:36:01.809Z,7.47
2019-04-21T12:38:40.999Z,8.03
2019-04-21T12:41:02.386Z,7.17
2019-04-21T12:43:30.938Z,7.10
2019-04-21T12:46:00.047Z,6.37
2019-04-21T12:48:29.641Z,6.10
2019-04-21T12:51:01.852Z,6.97
2019-04-21T12:53:31.787Z,6.20
2019-04-21T12:56:01.993Z,6.10
2019-04-21T12:58:31.133Z,6.00
2019-04-21T13:01:00.906Z,5.70
2019-04-21T13:03:30.360Z,6.00
2019-04-21T13:06:01.412Z,5.60
2019-04-21T13:08:41.488Z,6.03
2019-04-21T13:11:00.223Z,6.43
2019-04-21T13:13:28.611Z,6.83
2019-04-21T13:15:57.716Z,5.83
2019-04-21T13:18:27.024Z,5.73
2019-04-21T13:20:56.054Z,6.17
2019-04-21T13:23:27.090Z,6.57
2019-04-21T13:25:55.978Z,5.43
2019-04-21T13:28:26.265Z,5.67
2019-04-21T13:30:55.976Z,6.17
2019-04-21T13:33:25.175Z,5.37
2019-04-21T13:35:55.144Z,5.27
2019-04-21T13:38:34.538Z,6.20
2019-04-21T13:41:25.831Z,5.63
2019-04-21T13:43:43.411Z,6.00
2019-04-21T13:46:12.078Z,5.67
2019-04-21T13:48:42.354Z,6.83
2019-04-21T13:51:11.194Z,5.93
2019-04-21T13:53:40.192Z,6.67
2019-04-21T13:56:08.972Z,5.87
2019-04-21T13:58:38.009Z,5.70
2019-04-21T14:01:07.910Z,6.07
2019-04-21T14:03:37.574Z,6.20
2019-04-21T14:06:06.638Z,5.13
2019-04-21T14:08:37.782Z,5.47
2019-04-21T14:11:07.243Z,5.23
2019-04-21T14:13:36.467Z,5.67
2019-04-21T14:16:06.162Z,5.57
2019-04-21T14:18:38.565Z,6.50
2019-04-21T14:21:07.318Z,4.93
2019-04-21T14:23:40.559Z,5.17
2019-04-21T14:26:08.687Z,8.17
2019-04-21T14:28:38.776Z,4.30
2019-04-21T14:31:08.303Z,4.40
2019-04-21T14:33:37.950Z,4.30
2019-04-21T14:36:08.486Z,4.40
2019-04-21T14:38:38.470Z,4.20
2019-04-21T14:41:08.321Z,4.20
2019-04-21T14:43:38.403Z,5.17
2019-04-21T14:46:17.855Z,4.37
2019-04-21T14:49:05.492Z,5.13
2019-04-21T14:51:36.972Z,4.27
2019-04-21T14:54:08.009Z,4.73
2019-04-21T14:56:37.464Z,5.00
2019-04-21T14:59:07.228Z,3.50
2019-04-21T15:01:35.911Z,3.70
2019-04-21T15:04:05.798Z,4.17
2019-04-21T15:06:34.765Z,3.37
2019-04-21T15:09:03.346Z,3.60
2019-04-21T15:11:31.967Z,3.30
2019-04-21T15:14:01.939Z,3.73
2019-04-21T15:16:31.157Z,3.87
2019-04-21T15:19:00.210Z,3.30
2019-04-21T15:21:29.134Z,3.80
2019-04-21T15:23:58.201Z,3.53
2019-04-21T15:26:28.321Z,3.73
2019-04-21T15:28:57.094Z,3.40
2019-04-21T15:31:30.688Z,2.90
2019-04-21T15:33:57.088Z,3.20
2019-04-21T15:36:27.113Z,3.73
2019-04-21T15:38:56.124Z,3.87
2019-04-21T15:41:24.754Z,3.33
2019-04-21T15:43:54.260Z,3.37
2019-04-21T15:46:22.762Z,3.10
2019-04-21T15:48:51.166Z,3.43
2019-04-21T15:51:19.795Z,2.90
2019-04-21T15:53:49.986Z,3.23
2019-04-21T15:56:28.863Z,3.57
2019-04-21T15:59:14.755Z,3.40
2019-04-21T16:01:46.129Z,3.50
2019-04-21T16:04:14.866Z,3.80
2019-04-21T16:06:43.646Z,3.67
2019-04-21T16:09:15.725Z,3.60
2019-04-21T16:11:43.940Z,3.67
2019-04-21T16:14:12.551Z,3.27
2019-04-21T16:16:41.256Z,3.53
2019-04-21T16:19:10.120Z,3.50
2019-04-21T16:21:42.534Z,3.53
2019-04-21T16:24:09.004Z,3.20
2019-04-21T16:26:38.421Z,3.37
2019-04-21T16:29:07.341Z,3.33
2019-04-21T16:31:36.347Z,3.33
2019-04-21T16:34:05.138Z,3.77
2019-04-21T16:36:33.913Z,3.10
2019-04-21T16:39:02.293Z,3.53
2019-04-21T16:41:31.973Z,3.10
2019-04-21T16:44:00.938Z,3.43
2019-04-21T16:46:29.835Z,3.40
2019-04-21T16:48:58.230Z,3.47
2019-04-21T16:51:26.645Z,3.40
2019-04-21T16:53:57.794Z,3.30
2019-04-21T16:56:43.846Z,3.50
2019-04-21T16:59:14.652Z,3.03
2019-04-21T17:01:44.658Z,3.43
2019-04-21T17:04:13.254Z,3.40
2019-04-21T17:06:42.861Z,3.10
2019-04-21T17:09:12.627Z,3.47
2019-04-21T17:11:43.638Z,3.23
2019-04-21T17:14:27.248Z,3.20
2019-04-21T17:17:06.676Z,3.10
2019-04-21T17:19:19.045Z,3.40
2019-04-21T17:21:41.701Z,3.47
2019-04-21T17:24:10.589Z,3.53
2019-04-21T17:26:41.236Z,3.70
2019-04-21T17:29:10.433Z,4.50
2019-04-21T17:31:39.438Z,4.83
2019-04-21T17:34:13.860Z,6.00
2019-04-21T17:36:39.129Z,7.07
2019-04-21T17:39:08.956Z,8.00
2019-04-21T17:41:49.126Z,7.77
2019-04-21T17:44:08.765Z,9.33
2019-04-21T17:46:45.853Z,9.77
2019-04-21T17:49:08.593Z,11.00
2019-04-21T17:51:55.162Z,11.27
2019-04-21T17:57:31.631Z,11.30
2019-04-21T18:00:04.092Z,12.47
2019-04-21T18:02:38.469Z,10.18
2019-04-21T18:05:08.714Z,10.83
2019-04-21T18:07:46.511Z,10.90
2019-04-21T18:10:05.022Z,11.23
2019-04-21T18:12:29.218Z,11.47
2019-04-21T18:14:56.515Z,11.67
2019-04-21T18:17:16.432Z,13.27
2019-04-21T18:19:47.482Z,12.87
2019-04-21T18:22:38.597Z,12.73
2019-04-21T18:25:09.987Z,11.70
2019-04-21T18:27:34.520Z,11.73
2019-04-21T18:30:04.632Z,12.53
2019-04-21T18:32:38.517Z,12.97
2019-04-21T18:35:11.574Z,13.57
2019-04-21T18:37:45.789Z,12.17
2019-04-21T18:40:16.742Z,12.77
2019-04-21T18:43:04.471Z,13.20
2019-04-21T18:45:48.065Z,11.80
2019-04-21T18:48:14.319Z,12.40
2019-04-21T18:50:52.077Z,12.43
2019-04-21T18:53:44.941Z,13.13
2019-04-21T18:56:05.253Z,11.80
2019-04-21T18:58:30.652Z,12.73
2019-04-21T19:01:07.629Z,12.13
2019-04-21T19:03:36.735Z,15.37
2019-04-21T19:06:08.779Z,12.00
2019-04-21T19:08:56.149Z,12.47
2019-04-21T19:11:19.583Z,13.47
2019-04-21T19:14:21.738Z,12.40
2019-04-21T19:21:32.790Z,11.43
2019-04-21T19:24:17.953Z,11.43
2019-04-21T19:26:46.575Z,11.70
2019-04-21T19:29:11.335Z,11.00
2019-04-21T19:31:39.905Z,11.70
2019-04-21T19:34:00.996Z,10.97
2019-04-21T19:36:19.526Z,11.17
2019-04-21T19:38:58.641Z,12.17
2019-04-21T19:41:32.325Z,12.23
2019-04-21T19:44:07.035Z,11.53
2019-04-21T19:46:36.913Z,11.57
2019-04-21T19:49:10.746Z,10.20
2019-04-21T19:51:33.889Z,11.33
2019-04-21T19:54:00.813Z,10.47
2019-04-21T19:56:18.851Z,10.20
2019-04-21T19:58:47.848Z,9.30
2019-04-21T20:01:17.402Z,8.73
2019-04-21T20:03:49.884Z,9.27
2019-04-21T20:06:32.984Z,8.77
2019-04-21T20:09:05.454Z,8.87
2019-04-21T20:11:33.625Z,9.07
2019-04-21T20:14:35.270Z,8.67
2019-04-21T20:16:37.616Z,8.30
2019-04-21T20:18:54.863Z,8.53
2019-04-21T20:21:16.462Z,7.63
2019-04-21T20:23:46.540Z,7.83
2019-04-21T20:26:15.975Z,7.53
2019-04-21T20:28:58.847Z,7.80
2019-04-21T20:31:31.584Z,7.40
2019-04-21T20:34:07.784Z,7.50
2019-04-21T20:36:35.426Z,7.90
2019-04-21T20:38:53.573Z,7.23
2019-04-21T20:41:26.878Z,7.07
2019-04-21T20:44:06.253Z,7.07
2019-04-21T20:46:35.122Z,7.30
2019-04-21T20:49:00.016Z,6.50
2019-04-21T20:51:34.088Z,6.73
2019-04-21T20:54:00.533Z,7.00
2019-04-21T20:56:27.665Z,6.77
2019-04-21T20:59:01.590Z,6.50
2019-04-21T21:01:43.427Z,6.70
2019-04-21T21:03:58.016Z,6.30
2019-04-21T21:06:33.431Z,7.03
2019-04-21T21:09:01.714Z,6.80
2019-04-21T21:11:35.270Z,6.97
2019-04-21T21:14:09.562Z,6.67
2019-04-21T21:16:41.887Z,6.57
2019-04-21T21:19:11.660Z,6.20
2019-04-21T21:21:32.705Z,7.27
2019-04-21T21:24:05.416Z,6.60
2019-04-21T21:26:33.661Z,6.13
2019-04-21T21:28:54.857Z,6.07
2019-04-21T21:31:38.749Z,6.63
2019-04-21T21:34:24.232Z,6.10
2019-04-21T21:36:33.960Z,6.33
2019-04-21T21:39:01.283Z,6.10
2019-04-21T21:41:22.375Z,6.43
2019-04-21T21:43:47.891Z,6.30
2019-04-21T21:46:31.262Z,6.07
2019-04-21T21:48:58.596Z,6.23
2019-04-21T21:51:27.314Z,6.00
2019-04-21T21:53:45.744Z,6.27
2019-04-21T21:56:14.646Z,6.70
2019-04-21T21:58:45.926Z,6.07
2019-04-21T22:01:15.216Z,6.10
2019-04-21T22:03:46.705Z,6.27
2019-04-21T22:06:18.839Z,6.53
2019-04-21T22:08:43.406Z,5.77
2019-04-21T22:11:11.673Z,7.53
2019-04-21T22:13:47.442Z,6.17
2019-04-21T22:16:13.958Z,6.30
2019-04-21T22:19:03.509Z,6.27
2019-04-21T22:21:27.866Z,5.90
2019-04-21T22:23:51.314Z,7.47
2019-04-21T22:26:11.363Z,5.63
2019-04-21T22:28:40.050Z,6.00
2019-04-21T22:31:15.005Z,6.50
2019-04-21T22:33:47.939Z,6.17
2019-04-21T22:36:21.018Z,5.90
2019-04-21T22:38:55.199Z,5.90
2019-04-21T22:41:18.952Z,5.80
2019-04-21T22:43:43.746Z,5.20
2019-04-21T22:46:11.607Z,6.40
2019-04-21T22:48:39.126Z,5.80
2019-04-21T22:51:18.752Z,5.47
2019-04-21T22:53:44.847Z,5.63
2019-04-21T22:56:14.830Z,6.10
2019-04-21T22:58:41.838Z,5.63
2019-04-21T23:01:09.127Z,5.60
2019-04-21T23:03:40.143Z,5.67
2019-04-21T23:06:15.556Z,5.83
2019-04-21T23:08:41.741Z,6.30
2019-04-21T23:11:11.908Z,5.83
2019-04-21T23:13:38.633Z,5.77
2019-04-21T23:16:08.478Z,5.20
2019-04-21T23:18:50.232Z,6.07
2019-04-21T23:21:23.391Z,6.30
2019-04-21T23:23:59.416Z,5.77
2019-04-21T23:26:29.750Z,6.07
2019-04-21T23:28:57.260Z,5.57
2019-04-21T23:31:31.037Z,5.33
2019-04-21T23:33:37.622Z,5.40
2019-04-21T23:36:11.958Z,5.63
2019-04-21T23:38:43.303Z,5.40
2019-04-21T23:41:08.989Z,5.93
2019-04-21T23:43:37.193Z,5.03
2019-04-21T23:46:14.766Z,5.40
2019-04-21T23:48:48.722Z,5.77
2019-04-21T23:51:15.724Z,5.77
2019-04-21T23:53:37.419Z,5.30
2019-04-21T23:56:05.905Z,5.53
2019-04-21T23:58:36.694Z,5.10
